createdAt,value
2023-04-08T00:02:52.763Z,101438.88
2023-04-08T00:08:14.900Z,101449.38
2023-04-08T00:13:36.973Z,101442.53
2023-04-08T00:18:59.277Z,101447.19
2023-04-08T00:24:21.376Z,101453.75
2023-04-08T00:29:43.450Z,101451.00
2023-04-08T00:35:06.022Z,101464.88
2023-04-08T00:40:28.636Z,101463.88
2023-04-08T00:45:50.811Z,101461.78
2023-04-08T00:51:13.043Z,101457.66
2023-04-08T00:56:35.861Z,101459.38
2023-04-08T01:02:13.406Z,101433.75
2023-04-08T01:07:45.583Z,101466.38
2023-04-08T01:13:12.531Z,101466.38
2023-04-08T01:18:37.434Z,101467.72
2023-04-08T01:24:15.019Z,101463.44
2023-04-08T01:29:37.944Z,101448.47
2023-04-08T01:35:02.576Z,101452.91
2023-04-08T01:40:25.525Z,101434.28
2023-04-08T01:45:49.640Z,101462.03
2023-04-08T01:51:14.051Z,101465.38
2023-04-08T01:56:40.093Z,101468.88
2023-04-08T02:02:06.733Z,101454.09
2023-04-08T02:07:28.792Z,101457.03
2023-04-08T02:12:51.100Z,101455.72
2023-04-08T02:18:30.292Z,101464.31
2023-04-08T02:23:52.678Z,101449.66
2023-04-08T02:29:17.970Z,101464.66
2023-04-08T02:34:44.425Z,101446.38
2023-04-08T02:40:33.155Z,101456.78
2023-04-08T02:45:56.095Z,101452.16
2023-04-08T02:51:18.305Z,101463.97
2023-04-08T02:56:40.866Z,101452.78
2023-04-08T03:02:03.396Z,101454.25
2023-04-08T03:07:26.276Z,101469.06
2023-04-08T03:12:48.575Z,101464.91
2023-04-08T03:18:11.404Z,101469.31
2023-04-08T03:23:37.419Z,101480.66
2023-04-08T03:29:01.454Z,101458.72
2023-04-08T03:34:27.339Z,101485.00
2023-04-08T03:39:55.839Z,101468.06
2023-04-08T03:45:17.995Z,101483.09
2023-04-08T03:50:40.292Z,101485.69
2023-04-08T03:56:05.020Z,101484.34
2023-04-08T04:01:27.714Z,101494.31
2023-04-08T04:06:49.609Z,101487.75
2023-04-08T04:12:11.519Z,101493.34
2023-04-08T04:17:33.565Z,101494.94
2023-04-08T04:22:56.257Z,101503.81
2023-04-08T04:28:18.105Z,101507.41
2023-04-08T04:33:40.318Z,101495.88
2023-04-08T04:39:02.305Z,101502.06
2023-04-08T04:44:24.716Z,101503.66
2023-04-08T04:49:46.712Z,101503.88
2023-04-08T04:55:08.790Z,101510.34
2023-04-08T05:00:31.070Z,101515.03
2023-04-08T05:05:55.925Z,101500.47
2023-04-08T05:11:18.986Z,101509.00
2023-04-08T05:16:41.139Z,101508.63
2023-04-08T05:22:03.152Z,101507.69
2023-04-08T05:27:24.918Z,101506.97
2023-04-08T05:38:21.403Z,101508.72
2023-04-08T05:43:44.257Z,101505.66
2023-04-08T05:49:06.858Z,101505.91
2023-04-08T05:54:28.641Z,101504.34
2023-04-08T05:59:50.808Z,101505.97
2023-04-08T06:05:12.513Z,101512.28
2023-04-08T06:10:34.693Z,101500.56
2023-04-08T06:15:57.083Z,101486.94
2023-04-08T06:21:19.686Z,101488.38
2023-04-08T06:26:41.958Z,101496.69
2023-04-08T06:32:04.193Z,101505.81
2023-04-08T06:37:25.989Z,101496.94
2023-04-08T06:42:49.058Z,101508.44
2023-04-08T06:48:24.028Z,101502.53
2023-04-08T06:53:46.256Z,101510.50
2023-04-08T06:59:08.315Z,101489.97
2023-04-08T07:04:30.141Z,101463.22
2023-04-08T07:09:52.439Z,101497.16
2023-04-08T07:15:14.690Z,101502.09
2023-04-08T07:20:38.880Z,101496.50
2023-04-08T07:26:05.813Z,101496.06
2023-04-08T07:31:27.984Z,101492.41
2023-04-08T07:36:49.743Z,101486.22
2023-04-08T07:42:14.642Z,101480.75
2023-04-08T07:47:37.464Z,101481.81
2023-04-08T07:52:59.536Z,101473.16
2023-04-08T07:58:22.118Z,101484.09
2023-04-08T08:03:44.213Z,101478.03
2023-04-08T08:09:06.417Z,101482.69
2023-04-08T08:14:28.440Z,101469.72
2023-04-08T08:19:50.190Z,101476.34
2023-04-08T08:25:12.082Z,101474.13
2023-04-08T08:30:34.321Z,101463.69
2023-04-08T08:35:58.645Z,101453.03
2023-04-08T08:41:21.806Z,101468.19
2023-04-08T08:46:48.931Z,101445.38
2023-04-08T08:52:10.850Z,101449.34
2023-04-08T08:57:35.004Z,101440.94
2023-04-08T09:03:16.918Z,101441.16
2023-04-08T09:08:39.030Z,101440.59
2023-04-08T09:14:01.271Z,101438.44
2023-04-08T09:19:22.668Z,101399.00
2023-04-08T09:24:44.541Z,101432.13
2023-04-08T09:30:16.632Z,101416.91
2023-04-08T09:35:39.255Z,101420.88
2023-04-08T09:41:05.894Z,101414.44
2023-04-08T09:46:33.854Z,101423.63
2023-04-08T09:52:01.236Z,101408.78
2023-04-08T09:57:33.976Z,101418.59
2023-04-08T10:03:00.226Z,101400.41
2023-04-08T10:08:24.638Z,101384.75
2023-04-08T10:13:52.371Z,101373.63
2023-04-08T10:19:53.275Z,101397.34
2023-04-08T10:25:17.926Z,101391.38
2023-04-08T10:30:48.656Z,101381.50
2023-04-08T10:36:15.548Z,101377.25
2023-04-08T10:41:44.055Z,101371.84
2023-04-08T10:47:06.304Z,101357.78
2023-04-08T10:52:28.513Z,101369.66
2023-04-08T10:57:51.709Z,101368.13
2023-04-08T11:03:15.539Z,101361.44
2023-04-08T11:08:38.969Z,101365.50
2023-04-08T11:14:02.616Z,101344.16
2023-04-08T11:19:25.530Z,101338.75
2023-04-08T11:24:48.383Z,101353.38
2023-04-08T11:30:12.600Z,101336.28
2023-04-08T11:35:35.065Z,101334.06
2023-04-08T11:40:59.418Z,101331.13
2023-04-08T11:46:21.469Z,101330.59
2023-04-08T11:51:59.990Z,101325.72
2023-04-08T11:57:33.395Z,101313.81
2023-04-08T12:02:57.611Z,101306.22
2023-04-08T12:08:19.727Z,101293.03
2023-04-08T12:13:41.655Z,101296.00
2023-04-08T12:19:03.588Z,101297.97
2023-04-08T12:24:25.724Z,101299.03
2023-04-08T12:29:49.786Z,101285.50
2023-04-08T12:35:11.949Z,101281.94
2023-04-08T12:40:34.438Z,101249.22
2023-04-08T12:45:57.137Z,101286.03
2023-04-08T12:51:27.077Z,101272.88
2023-04-08T12:56:49.416Z,101225.28
2023-04-08T13:02:14.852Z,101253.41
2023-04-08T13:07:37.902Z,101219.34
2023-04-08T13:12:59.556Z,101231.72
2023-04-08T13:18:23.479Z,101197.69
2023-04-08T13:23:47.439Z,101236.63
2023-04-08T13:29:09.704Z,101233.66
2023-04-08T13:34:32.022Z,101228.25
2023-04-08T13:39:54.018Z,101218.28
2023-04-08T13:45:16.397Z,101215.53
2023-04-08T13:50:39.297Z,101216.59
2023-04-08T13:56:01.430Z,101205.22
2023-04-08T14:01:23.415Z,101200.66
2023-04-08T14:06:45.476Z,101202.50
2023-04-08T14:12:07.452Z,101187.41
2023-04-08T14:17:29.368Z,101198.78
2023-04-08T14:22:51.944Z,101181.47
2023-04-08T14:28:13.894Z,101184.16
2023-04-08T14:33:40.096Z,101154.94
2023-04-08T14:39:03.238Z,101193.34
2023-04-08T14:44:25.860Z,101149.22
2023-04-08T14:49:49.219Z,101160.28
2023-04-08T14:55:18.067Z,101138.88
2023-04-08T15:00:48.394Z,101130.47
2023-04-08T15:06:11.557Z,101137.19
2023-04-08T15:11:37.326Z,101121.22
2023-04-08T15:16:59.896Z,101134.88
2023-04-08T15:22:22.144Z,101161.31
2023-04-08T15:27:44.117Z,101168.16
2023-04-08T15:33:06.703Z,101181.81
2023-04-08T15:38:29.509Z,101156.91
2023-04-08T15:43:53.669Z,101145.13
2023-04-08T15:49:17.537Z,101165.53
2023-04-08T15:54:40.110Z,101166.41
2023-04-08T16:00:02.674Z,101186.63
2023-04-08T16:05:36.570Z,101161.78
2023-04-08T16:11:03.399Z,101162.09
2023-04-08T16:16:27.359Z,101177.72
2023-04-08T16:21:49.776Z,101187.22
2023-04-08T16:27:12.329Z,101181.81
2023-04-08T16:32:34.456Z,101180.44
2023-04-08T16:37:57.814Z,101212.47
2023-04-08T16:43:20.975Z,101208.28
2023-04-08T16:48:44.376Z,101206.38
2023-04-08T16:54:06.561Z,101196.56
2023-04-08T16:59:29.500Z,101183.34
2023-04-08T17:04:51.500Z,101211.22
2023-04-08T17:10:14.050Z,101225.72
2023-04-08T17:15:36.893Z,101207.72
2023-04-08T17:21:01.402Z,101229.13
2023-04-08T17:26:23.999Z,101225.97
2023-04-08T17:31:46.119Z,101233.94
2023-04-08T17:37:11.020Z,101214.09
2023-04-08T17:42:33.032Z,101197.53
2023-04-08T17:47:57.268Z,101204.34
2023-04-08T17:53:19.682Z,101199.56
2023-04-08T17:58:42.149Z,101211.09
2023-04-08T18:04:09.042Z,101205.84
2023-04-08T18:09:44.075Z,101205.34
2023-04-08T18:15:09.313Z,101213.22
2023-04-08T18:20:40.254Z,101218.44
2023-04-08T18:26:02.416Z,101200.66
2023-04-08T18:31:24.975Z,101237.06
2023-04-08T18:36:50.050Z,101232.00
2023-04-08T18:42:11.989Z,101226.50
2023-04-08T18:47:33.807Z,101225.34
2023-04-08T18:52:56.334Z,101231.09
2023-04-08T18:58:18.356Z,101201.25
2023-04-08T19:03:41.033Z,101219.84
2023-04-08T19:09:03.710Z,101229.91
2023-04-08T19:14:26.059Z,101230.72
2023-04-08T19:19:49.209Z,101212.72
2023-04-08T19:25:11.174Z,101206.81
2023-04-08T19:30:38.629Z,101224.19
2023-04-08T19:36:01.123Z,101231.75
2023-04-08T19:41:24.460Z,101212.94
2023-04-08T19:46:46.944Z,101230.28
2023-04-08T19:52:09.403Z,101224.13
2023-04-08T19:57:31.449Z,101228.19
2023-04-08T20:02:53.891Z,101224.69
2023-04-08T20:08:16.806Z,101229.78
2023-04-08T20:13:40.759Z,101222.78
2023-04-08T20:19:03.289Z,101234.66
2023-04-08T20:24:25.954Z,101225.84
2023-04-08T20:29:48.413Z,101233.81
2023-04-08T20:35:13.690Z,101194.69
2023-04-08T20:40:56.478Z,101181.41
2023-04-08T20:46:52.909Z,101185.44
2023-04-08T20:58:32.424Z,101184.00
2023-04-08T21:03:55.452Z,101205.66
2023-04-08T21:09:17.833Z,101209.50
2023-04-08T21:14:40.280Z,101196.78
2023-04-08T21:20:02.260Z,101205.34
2023-04-08T21:25:27.057Z,101239.75
2023-04-08T21:30:49.504Z,101225.38
2023-04-08T21:36:12.242Z,101242.09
2023-04-08T21:41:34.009Z,101249.00
2023-04-08T21:46:56.286Z,101234.03
2023-04-08T21:52:18.571Z,101248.47
2023-04-08T21:57:42.074Z,101239.03
2023-04-08T22:03:04.793Z,101229.59
2023-04-08T22:08:27.299Z,101258.44
2023-04-08T22:13:49.377Z,101256.66
2023-04-08T22:19:12.217Z,101259.91
2023-04-08T22:24:34.150Z,101248.66
2023-04-08T22:29:56.172Z,101259.31
2023-04-08T22:35:18.436Z,101233.91
2023-04-08T22:40:41.252Z,101229.38
2023-04-08T22:46:03.603Z,101230.38
2023-04-08T22:51:25.947Z,101230.13
2023-04-08T22:56:47.647Z,101251.47
2023-04-08T23:02:09.697Z,101255.47
2023-04-08T23:07:32.034Z,101250.97
2023-04-08T23:12:53.915Z,101232.16
2023-04-08T23:18:15.937Z,101233.34
2023-04-08T23:23:37.938Z,101234.94
2023-04-08T23:28:59.964Z,101227.09
2023-04-08T23:34:22.107Z,101235.25
2023-04-08T23:39:43.835Z,101231.06
2023-04-08T23:45:07.038Z,101250.22
2023-04-08T23:50:28.546Z,101235.66
2023-04-08T23:55:50.311Z,101238.88
